sensor_id;sensor_type;location;lat;lon;timestamp;temperature;humidity
13794;DHT22;31160;49.500;7.772;2022-12-29T00:01:58;8.80;99.90
13794;DHT22;31160;49.500;7.772;2022-12-29T00:04:25;8.90;99.90
13794;DHT22;31160;49.500;7.772;2022-12-29T00:06:52;8.90;99.90
13794;DHT22;31160;49.500;7.772;2022-12-29T00:09:20;8.90;99.90
13794;DHT22;31160;49.500;7.772;2022-12-29T00:11:47;8.80;99.90
13794;DHT22;31160;49.500;7.772;2022-12-29T00:14:14;8.80;99.90
13794;DHT22;31160;49.500;7.772;2022-12-29T00:16:59;8.80;99.90
13794;DHT22;31160;49.500;7.772;2022-12-29T00:19:26;8.80;99.90
13794;DHT22;31160;49.500;7.772;2022-12-29T00:22:13;8.80;99.90
13794;DHT22;31160;49.500;7.772;2022-12-29T00:24:59;8.80;99.90
13794;DHT22;31160;49.500;7.772;2022-12-29T00:27:27;8.80;99.90
13794;DHT22;31160;49.500;7.772;2022-12-29T00:30:23;8.90;99.90
13794;DHT22;31160;49.500;7.772;2022-12-29T00:33:17;8.90;99.90
13794;DHT22;31160;49.500;7.772;2022-12-29T00:36:07;8.80;99.90
13794;DHT22;31160;49.500;7.772;2022-12-29T00:38:37;8.90;99.90
13794;DHT22;31160;49.500;7.772;2022-12-29T00:41:24;8.90;99.90
13794;DHT22;31160;49.500;7.772;2022-12-29T00:44:11;8.80;99.90
13794;DHT22;31160;49.500;7.772;2022-12-29T00:46:39;8.90;99.90
13794;DHT22;31160;49.500;7.772;2022-12-29T00:49:08;8.90;99.90
13794;DHT22;31160;49.500;7.772;2022-12-29T00:51:55;8.90;99.90
13794;DHT22;31160;49.500;7.772;2022-12-29T00:54:22;8.90;99.90
13794;DHT22;31160;49.500;7.772;2022-12-29T00:56:50;8.90;99.90
13794;DHT22;31160;49.500;7.772;2022-12-29T00:59:18;9.00;99.90
13794;DHT22;31160;49.500;7.772;2022-12-29T01:01:46;9.00;99.90
13794;DHT22;31160;49.500;7.772;2022-12-29T01:04:13;9.00;99.90
13794;DHT22;31160;49.500;7.772;2022-12-29T01:06:40;9.00;99.90
13794;DHT22;31160;49.500;7.772;2022-12-29T01:09:08;9.00;99.90
13794;DHT22;31160;49.500;7.772;2022-12-29T01:11:54;9.10;99.90
13794;DHT22;31160;49.500;7.772;2022-12-29T01:14:22;9.10;99.90
13794;DHT22;31160;49.500;7.772;2022-12-29T01:16:49;9.10;99.90
13794;DHT22;31160;49.500;7.772;2022-12-29T01:19:17;9.10;99.90
13794;DHT22;31160;49.500;7.772;2022-12-29T01:21:45;9.20;99.90
13794;DHT22;31160;49.500;7.772;2022-12-29T01:24:12;9.30;99.90
13794;DHT22;31160;49.500;7.772;2022-12-29T01:26:39;9.30;99.90
13794;DHT22;31160;49.500;7.772;2022-12-29T01:29:06;9.40;99.90
13794;DHT22;31160;49.500;7.772;2022-12-29T01:31:33;9.40;99.90
13794;DHT22;31160;49.500;7.772;2022-12-29T01:33:59;9.40;99.90
13794;DHT22;31160;49.500;7.772;2022-12-29T01:36:27;9.40;99.90
13794;DHT22;31160;49.500;7.772;2022-12-29T01:38:53;9.50;99.90
13794;DHT22;31160;49.500;7.772;2022-12-29T01:41:20;9.50;99.90
13794;DHT22;31160;49.500;7.772;2022-12-29T01:43:57;9.50;99.90
13794;DHT22;31160;49.500;7.772;2022-12-29T01:46:39;9.50;99.90
13794;DHT22;31160;49.500;7.772;2022-12-29T01:54:14;9.50;99.90
13794;DHT22;31160;49.500;7.772;2022-12-29T01:56:43;9.50;99.90
13794;DHT22;31160;49.500;7.772;2022-12-29T01:59:15;9.60;99.90
13794;DHT22;31160;49.500;7.772;2022-12-29T02:01:44;9.40;99.90
13794;DHT22;31160;49.500;7.772;2022-12-29T02:04:12;9.50;99.90
13794;DHT22;31160;49.500;7.772;2022-12-29T02:06:53;9.50;99.90
13794;DHT22;31160;49.500;7.772;2022-12-29T02:09:20;9.50;99.90
13794;DHT22;31160;49.500;7.772;2022-12-29T02:11:50;9.50;99.90
13794;DHT22;31160;49.500;7.772;2022-12-29T02:14:17;9.50;99.90
13794;DHT22;31160;49.500;7.772;2022-12-29T02:33:01;9.60;99.90
13794;DHT22;31160;49.500;7.772;2022-12-29T02:41:02;9.70;99.90
13794;DHT22;31160;49.500;7.772;2022-12-29T02:43:54;9.80;99.90
13794;DHT22;31160;49.500;7.772;2022-12-29T02:46:36;9.90;99.90
13794;DHT22;31160;49.500;7.772;2022-12-29T02:49:15;9.90;99.90
13794;DHT22;31160;49.500;7.772;2022-12-29T02:54:18;9.90;99.90
13794;DHT22;31160;49.500;7.772;2022-12-29T02:57:31;9.90;99.90
13794;DHT22;31160;49.500;7.772;2022-12-29T03:00:07;9.90;99.90
13794;DHT22;31160;49.500;7.772;2022-12-29T03:05:32;10.00;99.90
13794;DHT22;31160;49.500;7.772;2022-12-29T03:11:04;9.90;99.90
13794;DHT22;31160;49.500;7.772;2022-12-29T03:13:52;9.90;99.90
13794;DHT22;31160;49.500;7.772;2022-12-29T03:16:58;10.00;99.90
13794;DHT22;31160;49.500;7.772;2022-12-29T03:22:04;10.00;99.90
13794;DHT22;31160;49.500;7.772;2022-12-29T03:25:03;10.10;99.90
13794;DHT22;31160;49.500;7.772;2022-12-29T03:27:43;10.00;99.90
13794;DHT22;31160;49.500;7.772;2022-12-29T03:30:11;9.90;99.90
13794;DHT22;31160;49.500;7.772;2022-12-29T03:32:43;10.00;99.90
13794;DHT22;31160;49.500;7.772;2022-12-29T03:35:15;9.90;99.90
13794;DHT22;31160;49.500;7.772;2022-12-29T03:40:52;9.80;99.90
13794;DHT22;31160;49.500;7.772;2022-12-29T03:43:23;10.00;99.90
13794;DHT22;31160;49.500;7.772;2022-12-29T03:45:50;10.00;99.90
13794;DHT22;31160;49.500;7.772;2022-12-29T03:48:17;10.00;99.90
13794;DHT22;31160;49.500;7.772;2022-12-29T03:50:45;10.00;99.90
13794;DHT22;31160;49.500;7.772;2022-12-29T03:53:11;10.00;99.90
13794;DHT22;31160;49.500;7.772;2022-12-29T03:55:38;10.00;99.90
13794;DHT22;31160;49.500;7.772;2022-12-29T03:58:06;10.00;99.90
13794;DHT22;31160;49.500;7.772;2022-12-29T04:00:48;9.90;99.90
13794;DHT22;31160;49.500;7.772;2022-12-29T04:03:14;9.90;99.90
13794;DHT22;31160;49.500;7.772;2022-12-29T04:05:44;10.00;99.90
13794;DHT22;31160;49.500;7.772;2022-12-29T04:08:10;10.00;99.90
13794;DHT22;31160;49.500;7.772;2022-12-29T04:10:37;10.00;99.90
13794;DHT22;31160;49.500;7.772;2022-12-29T04:13:05;10.00;99.90
13794;DHT22;31160;49.500;7.772;2022-12-29T04:15:33;9.90;99.90
13794;DHT22;31160;49.500;7.772;2022-12-29T04:18:00;9.90;99.90
13794;DHT22;31160;49.500;7.772;2022-12-29T04:20:27;10.00;99.90
13794;DHT22;31160;49.500;7.772;2022-12-29T04:23:13;10.00;99.90
13794;DHT22;31160;49.500;7.772;2022-12-29T04:25:40;9.90;99.90
13794;DHT22;31160;49.500;7.772;2022-12-29T04:28:08;9.90;99.90
13794;DHT22;31160;49.500;7.772;2022-12-29T04:30:45;10.00;99.90
13794;DHT22;31160;49.500;7.772;2022-12-29T04:33:17;10.10;99.90
13794;DHT22;31160;49.500;7.772;2022-12-29T04:35:45;10.00;99.90
13794;DHT22;31160;49.500;7.772;2022-12-29T04:38:13;10.10;99.90
13794;DHT22;31160;49.500;7.772;2022-12-29T04:40:42;10.10;99.90
13794;DHT22;31160;49.500;7.772;2022-12-29T04:43:10;10.10;99.90
13794;DHT22;31160;49.500;7.772;2022-12-29T04:45:56;10.10;99.90
13794;DHT22;31160;49.500;7.772;2022-12-29T04:48:41;10.20;99.90
13794;DHT22;31160;49.500;7.772;2022-12-29T04:51:20;10.10;99.90
13794;DHT22;31160;49.500;7.772;2022-12-29T04:53:47;10.10;99.90
13794;DHT22;31160;49.500;7.772;2022-12-29T04:56:13;10.20;99.90
13794;DHT22;31160;49.500;7.772;2022-12-29T04:58:41;10.30;99.90
13794;DHT22;31160;49.500;7.772;2022-12-29T05:01:07;10.40;99.90
13794;DHT22;31160;49.500;7.772;2022-12-29T05:03:34;10.30;99.90
13794;DHT22;31160;49.500;7.772;2022-12-29T05:06:01;10.40;99.90
13794;DHT22;31160;49.500;7.772;2022-12-29T05:08:28;10.40;99.90
13794;DHT22;31160;49.500;7.772;2022-12-29T05:10:57;10.40;99.90
13794;DHT22;31160;49.500;7.772;2022-12-29T05:13:25;10.40;99.90
13794;DHT22;31160;49.500;7.772;2022-12-29T05:15:52;10.40;99.90
13794;DHT22;31160;49.500;7.772;2022-12-29T05:18:21;10.50;99.90
13794;DHT22;31160;49.500;7.772;2022-12-29T05:20:49;10.40;99.90
13794;DHT22;31160;49.500;7.772;2022-12-29T05:23:17;10.40;99.90
13794;DHT22;31160;49.500;7.772;2022-12-29T05:25:49;10.50;99.90
13794;DHT22;31160;49.500;7.772;2022-12-29T05:28:27;10.50;99.90
13794;DHT22;31160;49.500;7.772;2022-12-29T05:30:59;10.50;99.90
13794;DHT22;31160;49.500;7.772;2022-12-29T05:33:26;10.40;99.90
13794;DHT22;31160;49.500;7.772;2022-12-29T05:35:53;10.40;99.90
13794;DHT22;31160;49.500;7.772;2022-12-29T05:38:22;10.40;99.90
13794;DHT22;31160;49.500;7.772;2022-12-29T05:40:49;10.50;99.90
13794;DHT22;31160;49.500;7.772;2022-12-29T05:43:41;10.60;99.90
13794;DHT22;31160;49.500;7.772;2022-12-29T05:46:28;10.50;99.90
13794;DHT22;31160;49.500;7.772;2022-12-29T05:49:07;10.40;99.90
13794;DHT22;31160;49.500;7.772;2022-12-29T05:51:46;10.40;99.90
13794;DHT22;31160;49.500;7.772;2022-12-29T05:54:13;10.30;99.90
13794;DHT22;31160;49.500;7.772;2022-12-29T05:56:40;10.20;99.90
13794;DHT22;31160;49.500;7.772;2022-12-29T05:59:07;10.30;99.90
13794;DHT22;31160;49.500;7.772;2022-12-29T06:01:34;10.30;99.90
13794;DHT22;31160;49.500;7.772;2022-12-29T06:04:01;10.40;99.90
13794;DHT22;31160;49.500;7.772;2022-12-29T06:06:28;10.50;99.90
13794;DHT22;31160;49.500;7.772;2022-12-29T06:08:55;10.50;99.90
13794;DHT22;31160;49.500;7.772;2022-12-29T06:11:23;10.60;99.90
13794;DHT22;31160;49.500;7.772;2022-12-29T06:13:54;10.60;99.90
13794;DHT22;31160;49.500;7.772;2022-12-29T06:16:22;10.60;99.90
13794;DHT22;31160;49.500;7.772;2022-12-29T06:18:52;10.70;99.90
13794;DHT22;31160;49.500;7.772;2022-12-29T06:21:19;10.70;99.90
13794;DHT22;31160;49.500;7.772;2022-12-29T06:23:46;10.70;99.90
13794;DHT22;31160;49.500;7.772;2022-12-29T06:26:13;10.80;99.90
13794;DHT22;31160;49.500;7.772;2022-12-29T06:28:39;10.90;99.90
13794;DHT22;31160;49.500;7.772;2022-12-29T06:31:09;10.90;99.90
13794;DHT22;31160;49.500;7.772;2022-12-29T06:33:37;10.90;99.90
13794;DHT22;31160;49.500;7.772;2022-12-29T06:36:04;10.90;99.90
13794;DHT22;31160;49.500;7.772;2022-12-29T06:38:31;11.00;99.90
13794;DHT22;31160;49.500;7.772;2022-12-29T06:40:58;10.90;99.90
13794;DHT22;31160;49.500;7.772;2022-12-29T06:43:51;11.00;99.90
13794;DHT22;31160;49.500;7.772;2022-12-29T06:46:36;11.10;99.90
13794;DHT22;31160;49.500;7.772;2022-12-29T06:49:03;11.00;99.90
13794;DHT22;31160;49.500;7.772;2022-12-29T06:51:30;11.00;99.90
13794;DHT22;31160;49.500;7.772;2022-12-29T06:53:56;11.00;99.90
13794;DHT22;31160;49.500;7.772;2022-12-29T06:56:23;11.00;99.90
13794;DHT22;31160;49.500;7.772;2022-12-29T06:58:50;11.10;99.90
13794;DHT22;31160;49.500;7.772;2022-12-29T07:01:16;11.00;99.90
13794;DHT22;31160;49.500;7.772;2022-12-29T07:03:43;11.00;99.90
13794;DHT22;31160;49.500;7.772;2022-12-29T07:06:10;10.90;99.90
13794;DHT22;31160;49.500;7.772;2022-12-29T07:08:37;11.00;99.90
13794;DHT22;31160;49.500;7.772;2022-12-29T07:11:05;11.00;99.90
13794;DHT22;31160;49.500;7.772;2022-12-29T07:13:32;11.10;99.90
13794;DHT22;31160;49.500;7.772;2022-12-29T07:15:58;11.10;99.90
13794;DHT22;31160;49.500;7.772;2022-12-29T07:18:25;11.10;99.90
13794;DHT22;31160;49.500;7.772;2022-12-29T07:20:52;11.20;99.90
13794;DHT22;31160;49.500;7.772;2022-12-29T07:23:18;11.10;99.90
13794;DHT22;31160;49.500;7.772;2022-12-29T07:25:45;11.10;99.90
13794;DHT22;31160;49.500;7.772;2022-12-29T07:28:13;11.00;99.90
13794;DHT22;31160;49.500;7.772;2022-12-29T07:30:40;11.00;99.90
13794;DHT22;31160;49.500;7.772;2022-12-29T07:33:06;11.00;99.90
13794;DHT22;31160;49.500;7.772;2022-12-29T07:35:34;11.00;99.90
13794;DHT22;31160;49.500;7.772;2022-12-29T07:38:00;11.10;99.90
13794;DHT22;31160;49.500;7.772;2022-12-29T07:40:27;11.00;99.90
13794;DHT22;31160;49.500;7.772;2022-12-29T07:42:54;11.10;99.90
13794;DHT22;31160;49.500;7.772;2022-12-29T07:45:30;11.20;99.90
13794;DHT22;31160;49.500;7.772;2022-12-29T07:48:07;11.20;99.90
13794;DHT22;31160;49.500;7.772;2022-12-29T07:50:35;11.20;99.90
13794;DHT22;31160;49.500;7.772;2022-12-29T07:53:02;11.20;99.90
13794;DHT22;31160;49.500;7.772;2022-12-29T07:55:29;11.20;99.90
13794;DHT22;31160;49.500;7.772;2022-12-29T07:57:56;11.10;99.90
13794;DHT22;31160;49.500;7.772;2022-12-29T08:00:23;11.10;99.90
13794;DHT22;31160;49.500;7.772;2022-12-29T08:02:50;11.20;99.90
13794;DHT22;31160;49.500;7.772;2022-12-29T08:05:17;11.10;99.90
13794;DHT22;31160;49.500;7.772;2022-12-29T08:07:44;11.00;99.90
13794;DHT22;31160;49.500;7.772;2022-12-29T08:10:12;11.00;99.90
13794;DHT22;31160;49.500;7.772;2022-12-29T08:12:40;10.90;99.90
13794;DHT22;31160;49.500;7.772;2022-12-29T08:15:08;10.80;99.90
13794;DHT22;31160;49.500;7.772;2022-12-29T08:17:35;10.80;99.90
13794;DHT22;31160;49.500;7.772;2022-12-29T08:20:02;10.80;99.90
13794;DHT22;31160;49.500;7.772;2022-12-29T08:22:30;10.90;99.90
13794;DHT22;31160;49.500;7.772;2022-12-29T08:24:57;10.90;99.90
13794;DHT22;31160;49.500;7.772;2022-12-29T08:27:24;10.90;99.90
13794;DHT22;31160;49.500;7.772;2022-12-29T08:29:51;11.00;99.90
13794;DHT22;31160;49.500;7.772;2022-12-29T08:32:18;11.00;99.90
13794;DHT22;31160;49.500;7.772;2022-12-29T08:34:45;11.00;99.90
13794;DHT22;31160;49.500;7.772;2022-12-29T08:37:12;11.00;99.90
13794;DHT22;31160;49.500;7.772;2022-12-29T08:39:39;11.00;99.90
13794;DHT22;31160;49.500;7.772;2022-12-29T08:42:05;10.90;99.90
13794;DHT22;31160;49.500;7.772;2022-12-29T08:44:32;10.90;99.90
13794;DHT22;31160;49.500;7.772;2022-12-29T08:46:59;11.00;99.90
13794;DHT22;31160;49.500;7.772;2022-12-29T08:49:26;10.90;99.90
13794;DHT22;31160;49.500;7.772;2022-12-29T08:51:53;10.90;99.90
13794;DHT22;31160;49.500;7.772;2022-12-29T08:54:19;10.90;99.90
13794;DHT22;31160;49.500;7.772;2022-12-29T08:56:46;11.00;99.90
13794;DHT22;31160;49.500;7.772;2022-12-29T08:59:15;10.90;99.90
13794;DHT22;31160;49.500;7.772;2022-12-29T09:01:43;10.80;99.90
13794;DHT22;31160;49.500;7.772;2022-12-29T09:04:10;10.80;99.90
13794;DHT22;31160;49.500;7.772;2022-12-29T09:06:44;10.70;99.90
13794;DHT22;31160;49.500;7.772;2022-12-29T09:09:11;10.80;99.90
13794;DHT22;31160;49.500;7.772;2022-12-29T09:11:38;10.80;99.90
13794;DHT22;31160;49.500;7.772;2022-12-29T09:14:05;11.00;99.90
13794;DHT22;31160;49.500;7.772;2022-12-29T09:16:32;11.00;99.90
13794;DHT22;31160;49.500;7.772;2022-12-29T09:19:00;11.00;99.90
13794;DHT22;31160;49.500;7.772;2022-12-29T09:21:27;11.00;99.90
13794;DHT22;31160;49.500;7.772;2022-12-29T09:23:53;10.90;99.90
13794;DHT22;31160;49.500;7.772;2022-12-29T09:26:20;10.90;99.90
13794;DHT22;31160;49.500;7.772;2022-12-29T09:28:47;10.90;99.90
13794;DHT22;31160;49.500;7.772;2022-12-29T09:31:14;11.10;99.90
13794;DHT22;31160;49.500;7.772;2022-12-29T09:33:41;11.10;99.90
13794;DHT22;31160;49.500;7.772;2022-12-29T09:36:08;11.20;99.90
13794;DHT22;31160;49.500;7.772;2022-12-29T09:38:35;11.10;99.90
13794;DHT22;31160;49.500;7.772;2022-12-29T09:41:12;11.10;99.90
13794;DHT22;31160;49.500;7.772;2022-12-29T09:44:10;11.20;99.90
13794;DHT22;31160;49.500;7.772;2022-12-29T09:46:48;11.20;99.90
13794;DHT22;31160;49.500;7.772;2022-12-29T09:49:45;11.30;99.90
13794;DHT22;31160;49.500;7.772;2022-12-29T09:52:17;11.30;99.90
13794;DHT22;31160;49.500;7.772;2022-12-29T09:54:54;11.30;99.90
13794;DHT22;31160;49.500;7.772;2022-12-29T09:57:53;11.30;99.90
13794;DHT22;31160;49.500;7.772;2022-12-29T10:00:26;11.40;99.90
13794;DHT22;31160;49.500;7.772;2022-12-29T10:02:59;11.20;99.90
13794;DHT22;31160;49.500;7.772;2022-12-29T10:14:08;11.10;99.90
13794;DHT22;31160;49.500;7.772;2022-12-29T10:17:09;11.00;99.90
13794;DHT22;31160;49.500;7.772;2022-12-29T10:25:23;10.90;99.90
13794;DHT22;31160;49.500;7.772;2022-12-29T10:27:59;11.00;99.90
13794;DHT22;31160;49.500;7.772;2022-12-29T10:30:27;11.00;99.90
13794;DHT22;31160;49.500;7.772;2022-12-29T10:32:59;11.00;99.90
13794;DHT22;31160;49.500;7.772;2022-12-29T10:35:34;10.90;99.90
13794;DHT22;31160;49.500;7.772;2022-12-29T10:41:13;10.70;99.90
13794;DHT22;31160;49.500;7.772;2022-12-29T10:43:53;10.40;99.90
13794;DHT22;31160;49.500;7.772;2022-12-29T10:46:23;10.50;99.90
13794;DHT22;31160;49.500;7.772;2022-12-29T10:48:51;10.40;99.90
13794;DHT22;31160;49.500;7.772;2022-12-29T10:54:22;10.50;99.90
13794;DHT22;31160;49.500;7.772;2022-12-29T10:56:53;10.50;99.90
13794;DHT22;31160;49.500;7.772;2022-12-29T10:59:24;10.40;99.90
13794;DHT22;31160;49.500;7.772;2022-12-29T11:05:06;10.50;99.90
13794;DHT22;31160;49.500;7.772;2022-12-29T11:07:36;10.60;99.90
13794;DHT22;31160;49.500;7.772;2022-12-29T11:10:38;10.50;99.90
13794;DHT22;31160;49.500;7.772;2022-12-29T11:13:19;10.40;99.90
13794;DHT22;31160;49.500;7.772;2022-12-29T11:15:51;10.30;99.90
13794;DHT22;31160;49.500;7.772;2022-12-29T11:18:38;10.10;99.90
13794;DHT22;31160;49.500;7.772;2022-12-29T11:23:58;10.00;99.90
13794;DHT22;31160;49.500;7.772;2022-12-29T11:26:26;10.00;99.90
13794;DHT22;31160;49.500;7.772;2022-12-29T11:29:11;10.10;99.90
13794;DHT22;31160;49.500;7.772;2022-12-29T11:31:42;10.10;99.90
13794;DHT22;31160;49.500;7.772;2022-12-29T11:34:20;10.30;99.90
13794;DHT22;31160;49.500;7.772;2022-12-29T11:36:49;10.50;99.90
13794;DHT22;31160;49.500;7.772;2022-12-29T11:42:17;11.10;99.90
13794;DHT22;31160;49.500;7.772;2022-12-29T11:44:46;11.20;99.90
13794;DHT22;31160;49.500;7.772;2022-12-29T11:47:22;11.20;99.90
13794;DHT22;31160;49.500;7.772;2022-12-29T11:49:53;11.10;99.90
13794;DHT22;31160;49.500;7.772;2022-12-29T11:52:23;11.20;99.90
13794;DHT22;31160;49.500;7.772;2022-12-29T11:54:52;11.10;99.90
13794;DHT22;31160;49.500;7.772;2022-12-29T11:57:19;11.10;99.90
13794;DHT22;31160;49.500;7.772;2022-12-29T11:59:52;11.20;99.90
13794;DHT22;31160;49.500;7.772;2022-12-29T12:05:16;11.20;99.90
13794;DHT22;31160;49.500;7.772;2022-12-29T12:07:52;11.40;99.90
13794;DHT22;31160;49.500;7.772;2022-12-29T12:10:31;11.50;99.90
13794;DHT22;31160;49.500;7.772;2022-12-29T12:13:14;11.50;99.90
13794;DHT22;31160;49.500;7.772;2022-12-29T12:15:47;11.50;99.90
13794;DHT22;31160;49.500;7.772;2022-12-29T12:20:58;11.80;99.90
13794;DHT22;31160;49.500;7.772;2022-12-29T12:26:21;11.50;99.90
13794;DHT22;31160;49.500;7.772;2022-12-29T12:29:01;11.60;99.90
13794;DHT22;31160;49.500;7.772;2022-12-29T12:31:47;11.40;99.90
13794;DHT22;31160;49.500;7.772;2022-12-29T12:34:23;11.40;99.90
13794;DHT22;31160;49.500;7.772;2022-12-29T12:37:22;11.40;99.90
13794;DHT22;31160;49.500;7.772;2022-12-29T12:48:28;11.00;99.90
13794;DHT22;31160;49.500;7.772;2022-12-29T12:56:38;11.00;99.90
13794;DHT22;31160;49.500;7.772;2022-12-29T13:02:08;11.20;99.90
13794;DHT22;31160;49.500;7.772;2022-12-29T13:05:16;11.00;99.90
13794;DHT22;31160;49.500;7.772;2022-12-29T13:08:18;11.10;99.90
13794;DHT22;31160;49.500;7.772;2022-12-29T13:14:29;11.00;99.90
13794;DHT22;31160;49.500;7.772;2022-12-29T13:17:13;11.00;99.90
13794;DHT22;31160;49.500;7.772;2022-12-29T13:19:57;11.00;99.90
13794;DHT22;31160;49.500;7.772;2022-12-29T13:22:41;11.10;99.90
13794;DHT22;31160;49.500;7.772;2022-12-29T13:25:27;10.90;99.90
13794;DHT22;31160;49.500;7.772;2022-12-29T13:31:00;11.00;99.90
13794;DHT22;31160;49.500;7.772;2022-12-29T13:36:39;10.80;99.90
13794;DHT22;31160;49.500;7.772;2022-12-29T13:39:19;10.80;99.90
13794;DHT22;31160;49.500;7.772;2022-12-29T13:41:54;10.70;99.90
13794;DHT22;31160;49.500;7.772;2022-12-29T13:50:14;10.60;99.90
13794;DHT22;31160;49.500;7.772;2022-12-29T14:03:46;10.20;99.90
13794;DHT22;31160;49.500;7.772;2022-12-29T14:06:16;10.20;99.90
13794;DHT22;31160;49.500;7.772;2022-12-29T14:08:46;10.30;99.90
13794;DHT22;31160;49.500;7.772;2022-12-29T14:11:17;10.40;99.90
13794;DHT22;31160;49.500;7.772;2022-12-29T14:13:47;10.40;99.90
13794;DHT22;31160;49.500;7.772;2022-12-29T14:16:33;10.40;99.90
13794;DHT22;31160;49.500;7.772;2022-12-29T14:19:09;10.40;99.90
13794;DHT22;31160;49.500;7.772;2022-12-29T14:21:38;10.30;99.90
13794;DHT22;31160;49.500;7.772;2022-12-29T14:32:47;10.10;99.90
13794;DHT22;31160;49.500;7.772;2022-12-29T14:35:44;10.00;99.90
13794;DHT22;31160;49.500;7.772;2022-12-29T14:38:17;9.90;99.90
13794;DHT22;31160;49.500;7.772;2022-12-29T14:40:45;9.70;99.90
13794;DHT22;31160;49.500;7.772;2022-12-29T14:43:18;9.60;99.90
13794;DHT22;31160;49.500;7.772;2022-12-29T14:45:59;9.50;99.90
13794;DHT22;31160;49.500;7.772;2022-12-29T14:48:35;9.50;99.90
13794;DHT22;31160;49.500;7.772;2022-12-29T14:51:29;9.50;99.90
13794;DHT22;31160;49.500;7.772;2022-12-29T14:53:57;9.50;99.90
13794;DHT22;31160;49.500;7.772;2022-12-29T14:56:27;9.50;99.90
13794;DHT22;31160;49.500;7.772;2022-12-29T14:58:57;9.50;99.90
13794;DHT22;31160;49.500;7.772;2022-12-29T15:01:26;9.50;99.90
13794;DHT22;31160;49.500;7.772;2022-12-29T15:03:58;9.50;99.90
13794;DHT22;31160;49.500;7.772;2022-12-29T15:06:29;9.50;99.90
13794;DHT22;31160;49.500;7.772;2022-12-29T15:11:53;9.60;99.90
13794;DHT22;31160;49.500;7.772;2022-12-29T15:14:39;9.70;99.90
13794;DHT22;31160;49.500;7.772;2022-12-29T15:19:51;9.60;99.90
13794;DHT22;31160;49.500;7.772;2022-12-29T15:22:18;9.50;99.90
13794;DHT22;31160;49.500;7.772;2022-12-29T15:24:45;9.50;99.90
13794;DHT22;31160;49.500;7.772;2022-12-29T15:27:19;9.60;99.90
13794;DHT22;31160;49.500;7.772;2022-12-29T15:29:46;9.40;99.90
13794;DHT22;31160;49.500;7.772;2022-12-29T15:34:45;9.30;99.90
13794;DHT22;31160;49.500;7.772;2022-12-29T15:37:26;9.30;99.90
13794;DHT22;31160;49.500;7.772;2022-12-29T15:39:55;9.40;99.90
13794;DHT22;31160;49.500;7.772;2022-12-29T15:45:04;9.30;99.90
13794;DHT22;31160;49.500;7.772;2022-12-29T15:47:38;9.10;99.90
13794;DHT22;31160;49.500;7.772;2022-12-29T15:52:41;9.00;99.90
13794;DHT22;31160;49.500;7.772;2022-12-29T15:55:32;9.00;99.90
13794;DHT22;31160;49.500;7.772;2022-12-29T15:58:02;9.00;99.90
13794;DHT22;31160;49.500;7.772;2022-12-29T16:00:31;8.90;99.90
13794;DHT22;31160;49.500;7.772;2022-12-29T16:03:01;8.90;99.90
13794;DHT22;31160;49.500;7.772;2022-12-29T16:05:34;9.00;99.90
13794;DHT22;31160;49.500;7.772;2022-12-29T16:08:01;8.90;99.90
13794;DHT22;31160;49.500;7.772;2022-12-29T16:10:32;8.90;99.90
13794;DHT22;31160;49.500;7.772;2022-12-29T16:15:45;8.90;99.90
13794;DHT22;31160;49.500;7.772;2022-12-29T16:18:27;8.90;99.90
13794;DHT22;31160;49.500;7.772;2022-12-29T16:20:56;9.00;99.90
13794;DHT22;31160;49.500;7.772;2022-12-29T16:23:26;9.00;99.90
13794;DHT22;31160;49.500;7.772;2022-12-29T16:25:55;9.00;99.90
13794;DHT22;31160;49.500;7.772;2022-12-29T16:28:32;9.00;99.90
13794;DHT22;31160;49.500;7.772;2022-12-29T16:31:06;9.00;99.90
13794;DHT22;31160;49.500;7.772;2022-12-29T16:33:38;9.00;99.90
13794;DHT22;31160;49.500;7.772;2022-12-29T16:36:38;9.00;99.90
13794;DHT22;31160;49.500;7.772;2022-12-29T16:39:24;9.10;99.90
13794;DHT22;31160;49.500;7.772;2022-12-29T16:41:53;9.10;99.90
13794;DHT22;31160;49.500;7.772;2022-12-29T16:44:26;9.00;99.90
13794;DHT22;31160;49.500;7.772;2022-12-29T16:49:39;9.10;99.90
13794;DHT22;31160;49.500;7.772;2022-12-29T16:52:17;9.00;99.90
13794;DHT22;31160;49.500;7.772;2022-12-29T16:54:54;8.90;99.90
13794;DHT22;31160;49.500;7.772;2022-12-29T16:57:24;9.00;99.90
13794;DHT22;31160;49.500;7.772;2022-12-29T16:59:53;8.90;99.90
13794;DHT22;31160;49.500;7.772;2022-12-29T17:02:25;8.80;99.90
13794;DHT22;31160;49.500;7.772;2022-12-29T17:04:53;8.80;99.90
13794;DHT22;31160;49.500;7.772;2022-12-29T17:07:23;8.80;99.90
13794;DHT22;31160;49.500;7.772;2022-12-29T17:09:50;8.80;99.90
13794;DHT22;31160;49.500;7.772;2022-12-29T17:12:28;8.90;99.90
13794;DHT22;31160;49.500;7.772;2022-12-29T17:14:58;8.90;99.90
13794;DHT22;31160;49.500;7.772;2022-12-29T17:20:24;9.00;99.90
13794;DHT22;31160;49.500;7.772;2022-12-29T17:22:51;9.00;99.90
13794;DHT22;31160;49.500;7.772;2022-12-29T17:25:36;8.90;99.90
13794;DHT22;31160;49.500;7.772;2022-12-29T17:28:22;8.90;99.90
13794;DHT22;31160;49.500;7.772;2022-12-29T17:30:52;8.80;99.90
13794;DHT22;31160;49.500;7.772;2022-12-29T17:33:20;8.90;99.90
13794;DHT22;31160;49.500;7.772;2022-12-29T17:35:47;9.00;99.90
13794;DHT22;31160;49.500;7.772;2022-12-29T17:38:24;8.90;99.90
13794;DHT22;31160;49.500;7.772;2022-12-29T17:40:53;8.90;99.90
13794;DHT22;31160;49.500;7.772;2022-12-29T17:43:20;8.90;99.90
13794;DHT22;31160;49.500;7.772;2022-12-29T17:45:52;8.90;99.90
13794;DHT22;31160;49.500;7.772;2022-12-29T17:48:19;8.90;99.90
13794;DHT22;31160;49.500;7.772;2022-12-29T17:50:49;8.90;99.90
13794;DHT22;31160;49.500;7.772;2022-12-29T17:53:22;8.90;99.90
13794;DHT22;31160;49.500;7.772;2022-12-29T17:55:49;9.00;99.90
13794;DHT22;31160;49.500;7.772;2022-12-29T17:58:25;9.00;99.90
13794;DHT22;31160;49.500;7.772;2022-12-29T18:00:54;8.80;99.90
13794;DHT22;31160;49.500;7.772;2022-12-29T18:03:34;8.80;99.90
13794;DHT22;31160;49.500;7.772;2022-12-29T18:06:02;8.90;99.90
13794;DHT22;31160;49.500;7.772;2022-12-29T18:08:31;8.90;99.90
13794;DHT22;31160;49.500;7.772;2022-12-29T18:11:00;8.90;99.90
13794;DHT22;31160;49.500;7.772;2022-12-29T18:13:30;8.90;99.90
13794;DHT22;31160;49.500;7.772;2022-12-29T18:16:11;8.90;99.90
13794;DHT22;31160;49.500;7.772;2022-12-29T18:18:38;8.90;99.90
13794;DHT22;31160;49.500;7.772;2022-12-29T18:21:05;8.80;99.90
13794;DHT22;31160;49.500;7.772;2022-12-29T18:23:32;8.80;99.90
13794;DHT22;31160;49.500;7.772;2022-12-29T18:26:03;8.70;99.90
13794;DHT22;31160;49.500;7.772;2022-12-29T18:28:31;8.70;99.90
13794;DHT22;31160;49.500;7.772;2022-12-29T18:30:59;8.70;99.90
13794;DHT22;31160;49.500;7.772;2022-12-29T18:33:28;8.70;99.90
13794;DHT22;31160;49.500;7.772;2022-12-29T18:36:01;8.80;99.90
13794;DHT22;31160;49.500;7.772;2022-12-29T18:38:29;9.00;99.90
13794;DHT22;31160;49.500;7.772;2022-12-29T18:40:57;8.90;99.90
13794;DHT22;31160;49.500;7.772;2022-12-29T18:43:24;9.00;99.90